createdAt,value
2023-05-19T00:01:00.426Z,96.34
2023-05-19T00:03:28.418Z,96.12
2023-05-19T00:05:59.011Z,96.07
2023-05-19T00:08:31.042Z,96.15
2023-05-19T00:10:58.887Z,96.08
2023-05-19T00:13:27.117Z,96.15
2023-05-19T00:15:54.900Z,95.89
2023-05-19T00:18:23.120Z,95.76
2023-05-19T00:20:52.855Z,95.86
2023-05-19T00:23:20.156Z,95.60
2023-05-19T00:25:47.419Z,95.54
2023-05-19T00:28:14.614Z,95.63
2023-05-19T00:30:42.248Z,95.57
2023-05-19T00:33:09.745Z,95.65
2023-05-19T00:35:37.095Z,95.48
2023-05-19T00:38:04.480Z,95.66
2023-05-19T00:40:34.754Z,95.45
2023-05-19T00:43:02.929Z,95.61
2023-05-19T00:45:30.658Z,95.46
2023-05-19T00:47:58.045Z,95.35
2023-05-19T00:50:25.506Z,95.58
2023-05-19T00:52:53.315Z,95.40
2023-05-19T00:55:23.454Z,95.54
2023-05-19T00:57:51.716Z,95.66
2023-05-19T01:00:19.123Z,95.40
2023-05-19T01:02:47.624Z,95.48
2023-05-19T01:05:15.462Z,95.50
2023-05-19T01:07:43.058Z,95.31
2023-05-19T01:10:11.033Z,95.45
2023-05-19T01:12:40.860Z,95.52
2023-05-19T01:15:09.942Z,95.53
2023-05-19T01:17:46.387Z,95.50
2023-05-19T01:20:25.962Z,95.67
2023-05-19T01:23:38.799Z,95.73
2023-05-19T01:26:32.927Z,96.04
2023-05-19T01:29:29.364Z,96.16
2023-05-19T01:32:00.180Z,96.19
2023-05-19T01:34:31.075Z,96.23
2023-05-19T01:37:00.649Z,96.26
2023-05-19T01:39:28.457Z,96.37
2023-05-19T01:41:58.123Z,96.30
2023-05-19T01:44:25.591Z,96.52
2023-05-19T01:46:53.328Z,96.80
2023-05-19T01:49:24.234Z,96.92
2023-05-19T01:51:52.993Z,96.92
2023-05-19T01:54:20.547Z,97.07
2023-05-19T01:57:09.596Z,96.96
2023-05-19T02:00:05.672Z,97.28
2023-05-19T02:02:59.048Z,97.06
2023-05-19T02:05:40.965Z,97.17
2023-05-19T02:08:24.198Z,97.31
2023-05-19T02:11:03.054Z,97.42
2023-05-19T02:13:37.727Z,97.24
2023-05-19T02:16:06.197Z,97.34
2023-05-19T02:18:33.775Z,97.18
2023-05-19T02:21:01.797Z,97.18
2023-05-19T02:23:29.145Z,97.21
2023-05-19T02:25:57.922Z,97.26
2023-05-19T02:28:28.375Z,97.11
2023-05-19T02:30:55.780Z,97.09
2023-05-19T02:33:26.050Z,97.19
2023-05-19T02:35:53.666Z,97.19
2023-05-19T02:38:21.462Z,97.03
2023-05-19T02:40:48.818Z,97.21
2023-05-19T02:43:18.958Z,97.38
2023-05-19T02:45:46.288Z,97.47
2023-05-19T02:48:13.709Z,97.67
2023-05-19T02:50:41.077Z,97.54
2023-05-19T02:53:08.638Z,97.66
2023-05-19T02:55:36.646Z,98.24
2023-05-19T02:58:04.153Z,98.17
2023-05-19T03:00:31.621Z,98.44
2023-05-19T03:03:02.693Z,98.57
2023-05-19T03:05:31.537Z,98.73
2023-05-19T03:07:58.886Z,98.71
2023-05-19T03:10:26.202Z,98.77
2023-05-19T03:12:53.507Z,98.97
2023-05-19T03:15:23.226Z,98.95
2023-05-19T03:17:50.931Z,99.06
2023-05-19T03:20:18.528Z,99.29
2023-05-19T03:22:45.841Z,99.47
2023-05-19T03:25:13.556Z,99.70
2023-05-19T03:27:43.960Z,99.60
2023-05-19T03:30:11.995Z,100.00
2023-05-19T03:32:52.069Z,100.00
2023-05-19T03:35:19.482Z,100.00
2023-05-19T03:37:46.903Z,100.00
2023-05-19T03:40:15.551Z,100.00
2023-05-19T03:42:44.763Z,100.00
2023-05-19T03:45:12.146Z,100.00
2023-05-19T03:47:42.617Z,100.00
2023-05-19T03:50:23.555Z,100.00
2023-05-19T03:52:57.971Z,100.00
2023-05-19T03:55:30.118Z,100.00
2023-05-19T03:57:57.598Z,100.00
2023-05-19T04:00:25.181Z,100.00
2023-05-19T04:02:52.625Z,100.00
2023-05-19T04:05:20.041Z,100.00
2023-05-19T04:07:47.352Z,100.00
2023-05-19T04:10:14.754Z,100.00
2023-05-19T04:12:42.156Z,100.00
2023-05-19T04:15:12.255Z,100.00
2023-05-19T04:17:40.908Z,100.00
2023-05-19T04:20:08.593Z,100.00
2023-05-19T04:22:38.828Z,100.00
2023-05-19T04:25:07.537Z,100.00
2023-05-19T04:27:38.832Z,100.00
2023-05-19T04:30:07.250Z,100.00
2023-05-19T04:32:39.589Z,100.00
2023-05-19T04:35:09.632Z,100.00
2023-05-19T04:37:38.372Z,100.00
2023-05-19T04:40:11.209Z,100.00
2023-05-19T04:42:45.864Z,100.00
2023-05-19T04:45:14.196Z,100.00
2023-05-19T04:47:44.477Z,100.00
2023-05-19T04:50:11.896Z,100.00
2023-05-19T04:52:45.445Z,100.00
2023-05-19T04:55:13.416Z,100.00
2023-05-19T04:57:41.656Z,100.00
2023-05-19T05:00:12.753Z,100.00
2023-05-19T05:02:51.691Z,100.00
2023-05-19T05:05:21.458Z,100.00
2023-05-19T05:07:49.496Z,100.00
2023-05-19T05:10:17.144Z,100.00
2023-05-19T05:12:44.717Z,98.89
2023-05-19T05:15:12.526Z,97.43
2023-05-19T05:17:41.381Z,95.98
2023-05-19T05:20:09.852Z,94.63
2023-05-19T05:22:38.718Z,93.14
2023-05-19T05:25:07.751Z,92.99
2023-05-19T05:27:35.003Z,92.25
2023-05-19T05:30:02.427Z,90.92
2023-05-19T05:32:29.906Z,89.95
2023-05-19T05:34:57.344Z,88.70
2023-05-19T05:37:25.406Z,88.02
2023-05-19T05:39:52.624Z,87.40
2023-05-19T05:42:20.333Z,86.83
2023-05-19T05:44:49.110Z,86.19
2023-05-19T05:47:16.510Z,85.55
2023-05-19T05:49:48.703Z,85.42
2023-05-19T05:52:18.521Z,85.05
2023-05-19T05:54:48.557Z,85.20
2023-05-19T05:57:18.756Z,85.18
2023-05-19T05:59:47.177Z,85.21
2023-05-19T06:02:15.114Z,85.33
2023-05-19T06:04:42.329Z,85.30
2023-05-19T06:07:09.857Z,85.94
2023-05-19T06:09:38.856Z,86.32
2023-05-19T06:12:11.351Z,88.95
2023-05-19T06:14:43.550Z,92.15
2023-05-19T06:17:19.034Z,92.98
2023-05-19T06:19:46.250Z,93.22
2023-05-19T06:22:13.613Z,93.21
2023-05-19T06:24:40.887Z,93.04
2023-05-19T06:32:08.124Z,94.06
2023-05-19T06:34:35.926Z,94.64
2023-05-19T06:37:05.886Z,94.66
2023-05-19T06:39:37.692Z,94.29
2023-05-19T06:42:06.503Z,94.18
2023-05-19T06:44:57.553Z,94.25
2023-05-19T06:47:27.876Z,94.15
2023-05-19T06:49:55.720Z,93.90
2023-05-19T06:52:26.644Z,93.74
2023-05-19T06:54:54.889Z,93.66
2023-05-19T06:57:24.536Z,93.67
2023-05-19T06:59:54.389Z,93.51
2023-05-19T07:02:24.808Z,93.50
2023-05-19T07:04:53.984Z,93.26
2023-05-19T07:07:22.622Z,93.13
2023-05-19T07:09:50.779Z,92.85
2023-05-19T07:12:18.854Z,92.81
2023-05-19T07:14:47.074Z,92.46
2023-05-19T07:17:16.822Z,92.18
2023-05-19T07:19:45.571Z,92.01
2023-05-19T07:22:12.959Z,91.71
2023-05-19T07:24:40.735Z,91.44
2023-05-19T07:27:08.251Z,91.19
2023-05-19T07:29:36.448Z,91.22
2023-05-19T07:32:03.926Z,90.96
2023-05-19T07:34:31.223Z,90.92
2023-05-19T07:36:58.595Z,90.65
2023-05-19T07:39:29.487Z,90.44
2023-05-19T07:41:57.071Z,90.25
2023-05-19T07:44:24.349Z,89.84
2023-05-19T07:46:51.671Z,89.58
2023-05-19T07:49:19.115Z,89.61
2023-05-19T07:51:48.975Z,89.36
2023-05-19T07:54:16.282Z,89.11
2023-05-19T07:56:43.579Z,89.01
2023-05-19T07:59:11.028Z,88.79
2023-05-19T08:01:38.364Z,88.93
2023-05-19T08:04:05.915Z,89.01
2023-05-19T08:06:36.517Z,88.97
2023-05-19T08:09:06.150Z,89.20
2023-05-19T08:11:33.601Z,89.15
2023-05-19T08:14:00.801Z,88.97
2023-05-19T08:16:28.627Z,88.73
2023-05-19T08:19:01.073Z,88.68
2023-05-19T08:21:28.472Z,88.59
2023-05-19T08:23:57.145Z,88.17
2023-05-19T08:26:26.854Z,88.16
2023-05-19T08:28:54.510Z,87.87
2023-05-19T08:31:25.053Z,88.51
2023-05-19T08:33:52.655Z,88.15
2023-05-19T08:36:20.130Z,87.74
2023-05-19T08:38:47.468Z,88.16
2023-05-19T08:41:14.865Z,87.52
2023-05-19T08:43:42.532Z,87.43
2023-05-19T08:46:14.457Z,87.08
2023-05-19T08:48:43.350Z,87.19
2023-05-19T08:51:41.674Z,86.68
2023-05-19T08:54:16.218Z,86.92
2023-05-19T08:56:45.585Z,87.09
2023-05-19T08:59:15.204Z,86.86
2023-05-19T09:01:45.918Z,86.60
2023-05-19T09:04:16.616Z,86.54
2023-05-19T09:06:45.297Z,86.42
2023-05-19T09:09:12.868Z,86.39
2023-05-19T09:11:40.247Z,86.84
2023-05-19T09:14:07.696Z,86.22
2023-05-19T09:16:35.257Z,86.34
2023-05-19T09:19:02.831Z,85.96
2023-05-19T09:21:33.601Z,85.94
2023-05-19T09:24:06.263Z,86.31
2023-05-19T09:26:40.612Z,85.95
2023-05-19T09:29:18.379Z,85.73
2023-05-19T09:31:49.546Z,86.16
2023-05-19T09:34:19.062Z,86.19
2023-05-19T09:36:49.664Z,85.62
2023-05-19T09:39:17.896Z,85.40
2023-05-19T09:41:45.775Z,85.30
2023-05-19T09:44:35.252Z,84.48
2023-05-19T09:47:03.473Z,85.58
2023-05-19T09:49:31.431Z,85.81
2023-05-19T09:52:05.120Z,85.63
2023-05-19T09:54:35.807Z,85.09
2023-05-19T09:57:10.897Z,84.92
2023-05-19T09:59:43.689Z,84.88
2023-05-19T10:02:27.289Z,85.14
2023-05-19T10:05:16.060Z,85.16
2023-05-19T10:10:24.930Z,84.35
2023-05-19T10:10:54.218Z,85.03
2023-05-19T10:13:22.672Z,84.87
2023-05-19T10:16:37.053Z,84.81
2023-05-19T10:18:59.818Z,84.90
2023-05-19T10:21:28.709Z,85.74
2023-05-19T10:24:02.696Z,86.64
2023-05-19T10:26:36.177Z,86.95
2023-05-19T10:29:19.516Z,87.32
2023-05-19T10:31:52.469Z,87.87
2023-05-19T10:34:52.781Z,88.17
2023-05-19T10:37:28.990Z,89.01
2023-05-19T10:40:00.560Z,90.09
2023-05-19T10:42:42.022Z,91.16
2023-05-19T10:45:17.686Z,91.47
2023-05-19T10:47:45.680Z,91.74
2023-05-19T10:50:13.288Z,92.57
2023-05-19T10:52:40.706Z,92.50
2023-05-19T10:55:10.218Z,92.93
2023-05-19T10:57:37.771Z,93.15
2023-05-19T11:00:30.896Z,93.41
2023-05-19T11:03:15.677Z,93.50
2023-05-19T11:05:46.457Z,93.40
2023-05-19T11:08:13.910Z,93.47
2023-05-19T11:10:44.708Z,93.58
2023-05-19T11:13:22.742Z,93.37
2023-05-19T11:15:50.710Z,92.48
2023-05-19T11:18:19.668Z,91.05
2023-05-19T11:20:58.287Z,90.62
2023-05-19T11:23:27.819Z,91.05
2023-05-19T11:25:56.684Z,90.67
2023-05-19T11:28:26.329Z,91.09
2023-05-19T11:30:55.404Z,90.72
2023-05-19T11:33:27.669Z,90.85
2023-05-19T11:35:59.585Z,91.82
2023-05-19T11:38:28.624Z,92.16
2023-05-19T11:40:56.560Z,91.74
2023-05-19T11:43:26.874Z,90.42
2023-05-19T11:45:55.144Z,90.20
2023-05-19T11:48:23.178Z,90.28
2023-05-19T11:50:51.053Z,90.54
2023-05-19T11:53:19.587Z,90.50
2023-05-19T11:55:48.385Z,90.30
2023-05-19T11:58:16.681Z,90.72
2023-05-19T12:00:47.357Z,90.20
2023-05-19T12:03:15.613Z,90.17
2023-05-19T12:05:49.528Z,90.35
2023-05-19T12:08:21.703Z,90.30
2023-05-19T12:10:52.504Z,90.17
2023-05-19T12:13:21.052Z,90.49
2023-05-19T12:16:23.580Z,90.72
2023-05-19T12:19:10.572Z,91.18
2023-05-19T12:21:43.755Z,91.02
2023-05-19T12:24:15.399Z,91.36
2023-05-19T12:26:49.918Z,90.99
2023-05-19T12:29:22.178Z,91.08
2023-05-19T12:34:52.950Z,90.80
2023-05-19T12:37:22.474Z,89.71
2023-05-19T12:39:51.574Z,89.61
2023-05-19T12:42:25.751Z,89.89
2023-05-19T12:44:55.154Z,90.54
2023-05-19T12:47:32.431Z,90.36
2023-05-19T12:50:05.635Z,90.34
2023-05-19T12:52:51.933Z,89.86
2023-05-19T12:55:21.330Z,90.40
2023-05-19T12:57:57.532Z,89.79
2023-05-19T13:01:13.072Z,89.88
2023-05-19T13:04:06.897Z,90.36
2023-05-19T13:06:54.866Z,89.87
2023-05-19T13:09:31.188Z,89.68
2023-05-19T13:12:08.272Z,89.56
2023-05-19T13:15:01.021Z,89.29
2023-05-19T13:17:52.764Z,89.67
2023-05-19T13:20:38.449Z,93.84
2023-05-19T13:23:24.823Z,94.04
2023-05-19T13:26:03.970Z,93.54
2023-05-19T13:28:46.606Z,93.45
2023-05-19T13:31:19.094Z,93.05
2023-05-19T13:33:50.629Z,92.67
2023-05-19T13:36:20.023Z,92.78
2023-05-19T13:39:15.295Z,92.55
2023-05-19T13:41:52.946Z,92.38
2023-05-19T13:44:26.376Z,92.55
2023-05-19T13:46:57.579Z,92.24
2023-05-19T13:49:28.177Z,91.98
2023-05-19T13:52:08.541Z,91.81
2023-05-19T13:54:44.925Z,92.36
2023-05-19T13:57:20.674Z,92.53
2023-05-19T14:00:04.222Z,92.41
2023-05-19T14:02:44.835Z,92.27
2023-05-19T14:05:45.800Z,92.04
2023-05-19T14:08:51.256Z,92.10
2023-05-19T14:12:37.184Z,91.76
2023-05-19T14:18:45.061Z,92.01
2023-05-19T14:21:18.388Z,92.19
2023-05-19T14:24:23.024Z,91.70
2023-05-19T14:27:06.950Z,92.67
2023-05-19T14:29:53.959Z,93.20
2023-05-19T14:32:30.409Z,92.75
2023-05-19T14:35:08.411Z,92.62
2023-05-19T14:41:08.628Z,92.70
2023-05-19T14:44:03.413Z,93.12
2023-05-19T14:46:39.993Z,93.96
2023-05-19T14:51:53.482Z,93.83
2023-05-19T14:54:27.103Z,93.56
2023-05-19T14:56:58.033Z,93.40
2023-05-19T14:59:27.240Z,93.41
2023-05-19T15:01:55.301Z,93.41
2023-05-19T15:04:23.602Z,93.36
2023-05-19T15:07:05.771Z,93.66
2023-05-19T15:09:49.742Z,93.76
2023-05-19T15:12:41.045Z,94.41
2023-05-19T15:15:23.381Z,93.89
2023-05-19T15:17:51.346Z,93.56
2023-05-19T15:20:23.104Z,93.13
2023-05-19T15:22:51.518Z,93.12
2023-05-19T15:25:19.195Z,93.92
2023-05-19T15:27:48.058Z,94.86
2023-05-19T15:30:40.006Z,95.80
2023-05-19T15:33:19.386Z,95.86
2023-05-19T15:35:52.418Z,95.68
2023-05-19T15:38:20.689Z,95.78
2023-05-19T15:40:48.872Z,95.64
2023-05-19T15:43:19.712Z,94.92
2023-05-19T15:45:47.966Z,94.84
2023-05-19T15:48:15.471Z,94.72
2023-05-19T15:50:42.877Z,94.66
2023-05-19T15:53:10.783Z,94.54
2023-05-19T15:55:38.380Z,94.44
2023-05-19T15:58:06.133Z,94.31
2023-05-19T16:00:33.757Z,94.20
2023-05-19T16:03:01.597Z,94.33
2023-05-19T16:05:28.986Z,94.40
2023-05-19T16:07:56.394Z,94.49
2023-05-19T16:10:23.760Z,94.62
2023-05-19T16:12:54.441Z,94.61
2023-05-19T16:15:40.445Z,94.72
2023-05-19T16:18:10.191Z,94.63
2023-05-19T16:20:42.725Z,95.72
2023-05-19T16:23:10.090Z,95.87
2023-05-19T16:25:39.774Z,95.77
2023-05-19T16:28:07.144Z,96.20
2023-05-19T16:30:34.697Z,96.74
2023-05-19T16:33:02.251Z,96.61
2023-05-19T16:35:30.040Z,96.75
2023-05-19T16:37:57.600Z,96.80
2023-05-19T16:40:24.914Z,97.07
2023-05-19T16:42:55.548Z,96.96
2023-05-19T16:45:22.925Z,97.28
2023-05-19T16:47:50.248Z,97.37
2023-05-19T16:50:17.646Z,97.46
2023-05-19T16:52:45.427Z,97.77
2023-05-19T16:55:17.236Z,97.61
2023-05-19T16:57:44.532Z,97.61
2023-05-19T17:00:12.659Z,97.63
2023-05-19T17:02:40.077Z,97.78
2023-05-19T17:05:07.824Z,97.62
2023-05-19T17:07:35.166Z,97.70
2023-05-19T17:10:02.526Z,97.63
2023-05-19T17:12:29.929Z,97.70
2023-05-19T17:14:57.383Z,100.00
2023-05-19T17:17:32.342Z,99.56
2023-05-19T17:19:59.960Z,100.00
2023-05-19T17:22:30.431Z,99.88
2023-05-19T17:24:57.765Z,99.92
2023-05-19T17:27:25.016Z,99.82
2023-05-19T17:29:52.385Z,100.00
2023-05-19T17:32:25.604Z,100.00
2023-05-19T17:34:53.632Z,100.00
2023-05-19T17:37:27.598Z,99.88
2023-05-19T17:39:55.032Z,99.69
2023-05-19T17:42:22.381Z,99.61
2023-05-19T17:44:49.833Z,99.42
2023-05-19T17:47:17.319Z,99.59
2023-05-19T17:49:44.869Z,99.40
2023-05-19T17:52:12.509Z,99.65
2023-05-19T17:54:40.004Z,99.24
2023-05-19T17:57:12.762Z,99.33
2023-05-19T17:59:41.119Z,99.38
2023-05-19T18:02:09.872Z,99.42
2023-05-19T18:04:37.633Z,99.36
2023-05-19T18:07:06.936Z,99.18
2023-05-19T18:09:37.321Z,99.30
2023-05-19T18:12:06.265Z,99.18
2023-05-19T18:14:33.655Z,98.92
2023-05-19T18:17:01.028Z,98.74
2023-05-19T18:19:28.441Z,98.88
2023-05-19T18:21:56.393Z,98.49
2023-05-19T18:24:23.926Z,98.79
2023-05-19T18:27:00.644Z,98.86
2023-05-19T18:29:32.554Z,98.61
2023-05-19T18:32:01.434Z,98.55
2023-05-19T18:34:30.116Z,98.80
2023-05-19T18:37:00.417Z,98.64
2023-05-19T18:39:29.333Z,98.32
2023-05-19T18:41:56.825Z,98.32
2023-05-19T18:44:30.636Z,97.86
2023-05-19T18:47:00.655Z,98.00
2023-05-19T18:49:28.298Z,97.55
2023-05-19T18:51:55.597Z,97.34
2023-05-19T18:54:22.992Z,97.39
2023-05-19T18:56:50.473Z,97.09
2023-05-19T18:59:20.738Z,97.09
2023-05-19T19:01:48.203Z,97.31
2023-05-19T19:04:16.730Z,97.23
2023-05-19T19:06:44.321Z,97.34
2023-05-19T19:09:14.203Z,97.43
2023-05-19T19:11:41.597Z,97.55
2023-05-19T19:14:10.237Z,97.39
2023-05-19T19:16:37.870Z,96.67
2023-05-19T19:19:11.575Z,96.71
2023-05-19T19:21:41.465Z,96.90
2023-05-19T19:24:08.919Z,96.97
2023-05-19T19:26:36.932Z,96.80
2023-05-19T19:29:04.278Z,96.92
2023-05-19T19:31:33.225Z,97.12
2023-05-19T19:34:03.848Z,97.26
2023-05-19T19:36:32.058Z,97.25
2023-05-19T19:38:59.574Z,97.42
2023-05-19T19:41:29.759Z,97.86
2023-05-19T19:43:57.129Z,98.01
2023-05-19T19:46:26.446Z,98.26
2023-05-19T19:48:57.077Z,98.33
2023-05-19T19:51:24.685Z,98.64
2023-05-19T19:53:56.607Z,98.62
2023-05-19T19:56:26.230Z,98.98
2023-05-19T19:58:54.831Z,98.84
2023-05-19T20:01:27.266Z,99.07
2023-05-19T20:03:55.343Z,99.29
2023-05-19T20:06:23.047Z,99.46
2023-05-19T20:08:50.462Z,99.63
2023-05-19T20:11:17.843Z,99.60
2023-05-19T20:13:45.160Z,99.86
2023-05-19T20:16:14.956Z,99.95
2023-05-19T20:18:42.401Z,100.00
2023-05-19T20:21:09.709Z,100.00
2023-05-19T20:23:43.684Z,100.00
2023-05-19T20:26:13.042Z,100.00
2023-05-19T20:28:41.203Z,100.00
2023-05-19T20:31:11.277Z,100.00
2023-05-19T20:33:38.985Z,100.00
2023-05-19T20:36:07.384Z,100.00
2023-05-19T20:38:34.690Z,100.00
2023-05-19T20:41:02.150Z,100.00
2023-05-19T20:43:29.525Z,100.00
2023-05-19T20:45:56.914Z,100.00
2023-05-19T20:48:24.356Z,100.00
2023-05-19T20:50:52.459Z,100.00
2023-05-19T20:53:21.319Z,100.00
2023-05-19T20:55:48.658Z,100.00
2023-05-19T20:58:15.933Z,100.00
2023-05-19T21:00:43.284Z,100.00
2023-05-19T21:03:12.932Z,100.00
2023-05-19T21:05:40.257Z,100.00
2023-05-19T21:08:12.653Z,100.00
2023-05-19T21:10:40.885Z,100.00
2023-05-19T21:13:15.628Z,100.00
2023-05-19T21:15:42.978Z,100.00
2023-05-19T21:18:11.719Z,100.00
2023-05-19T21:20:39.572Z,100.00
2023-05-19T21:23:07.015Z,100.00
2023-05-19T21:25:34.351Z,100.00
2023-05-19T21:28:04.304Z,100.00
2023-05-19T21:30:31.858Z,100.00
2023-05-19T21:32:59.773Z,100.00
2023-05-19T21:35:27.167Z,100.00
2023-05-19T21:37:54.449Z,100.00
2023-05-19T21:40:21.863Z,100.00
2023-05-19T21:42:49.077Z,100.00
2023-05-19T21:45:16.323Z,100.00
2023-05-19T21:47:43.735Z,100.00
2023-05-19T21:50:11.261Z,100.00
2023-05-19T21:52:48.538Z,100.00
2023-05-19T21:55:16.030Z,100.00
2023-05-19T21:57:43.281Z,100.00
2023-05-19T22:00:15.386Z,100.00
2023-05-19T22:02:43.182Z,100.00
2023-05-19T22:05:11.554Z,100.00
2023-05-19T22:07:38.934Z,100.00
2023-05-19T22:10:06.472Z,100.00
2023-05-19T22:12:36.717Z,100.00
2023-05-19T22:15:04.337Z,100.00
2023-05-19T22:17:31.841Z,100.00
2023-05-19T22:19:59.093Z,100.00
2023-05-19T22:22:26.339Z,100.00
2023-05-19T22:24:53.650Z,100.00
2023-05-19T22:27:20.998Z,100.00
2023-05-19T22:29:50.554Z,100.00
2023-05-19T22:32:19.399Z,100.00
2023-05-19T22:34:47.138Z,100.00
2023-05-19T22:37:14.960Z,100.00
2023-05-19T22:39:42.256Z,100.00
2023-05-19T22:42:09.665Z,100.00
2023-05-19T22:44:36.931Z,100.00
2023-05-19T22:47:06.629Z,100.00
2023-05-19T22:49:33.899Z,100.00
2023-05-19T22:52:01.260Z,100.00
2023-05-19T22:54:28.611Z,100.00
2023-05-19T22:56:58.216Z,100.00
2023-05-19T22:59:25.669Z,100.00
2023-05-19T23:01:53.361Z,100.00
2023-05-19T23:04:21.671Z,100.00
2023-05-19T23:06:52.262Z,100.00
2023-05-19T23:09:21.945Z,100.00
2023-05-19T23:11:51.505Z,100.00
2023-05-19T23:14:18.962Z,100.00
2023-05-19T23:16:46.563Z,100.00
2023-05-19T23:19:14.155Z,100.00
2023-05-19T23:21:41.540Z,100.00
2023-05-19T23:24:08.810Z,100.00
2023-05-19T23:26:38.458Z,100.00
2023-05-19T23:29:05.919Z,100.00
2023-05-19T23:31:34.877Z,100.00
2023-05-19T23:34:05.288Z,100.00
2023-05-19T23:36:32.583Z,100.00
2023-05-19T23:39:02.344Z,100.00
2023-05-19T23:41:29.629Z,100.00
2023-05-19T23:43:56.785Z,100.00
2023-05-19T23:46:24.085Z,100.00
2023-05-19T23:48:51.381Z,100.00
2023-05-19T23:51:18.713Z,100.00
2023-05-19T23:53:45.982Z,100.00
2023-05-19T23:56:13.238Z,100.00
2023-05-19T23:58:40.863Z,100.00
